North Tazewell, VA (24630)

08:30 PM EDT วัน สิงหาคม 30, 2015 (GMT -0400)
Parkview Heights | | Change Station
CLOSE
Current Station
Personal Weather Stations
Location: Bluefield, VA
Elevation: 2402 ft
Nearby Weather Stations

Elev 2402 ft 37.24 °N, 81.28 °W | Updated 8 seconds ago

มีเมฆคลุมเป็นส่วนใหญ่
มีเมฆคลุมเป็นส่วนใหญ่
70.4 ฟาเรนไฮน์
Feels Like 71 ฟาเรนไฮน์
N
0.0
ลม ความผันแปร ลม from ทางทิศเหนือ
Gusts 0.0 mph

วันนี้
High -- | Low -- ฟาเรนไฮน์
--% Chance of Precip.
Yesterday
High -- | Low -- ฟาเรนไฮน์
Precip. -- นิ้ว
6:54 AM 7:57 PM
พระจันทร์เต็มดวง, 98% visible
ความดัน 30.19 นิ้ว
ทัศนวิสัย 10.0 ไมล์
เมฆ มีเมฆคลุมไปทั่ว 11000 ft
ดัชนีความร้อน 71 ฟาเรนไฮน์
อุณหภูมิที่อากาศอาจจับตัวเป็นหยาดน้ำค้าง 64 ฟาเรนไฮน์
ความชื้น 81%
Rainfall 0.00 นิ้ว
Snow Depth Not available.
UV 0.0 out of 12
Pollen 8.70 out of 12
Air Quality Not available.
Flu Activity Not available.
METAR KJFZ 310015Z AUTO 11003KT 10SM OVC110 21/00 A3019 RMK AO2 T02121002
ความดัน 30.19 นิ้ว
ทัศนวิสัย 10.0 ไมล์
เมฆ มีเมฆคลุมไปทั่ว 11000 ft
ดัชนีความร้อน 71 ฟาเรนไฮน์
อุณหภูมิที่อากาศอาจจับตัวเป็นหยาดน้ำค้าง 64 ฟาเรนไฮน์
ความชื้น 81%
Rainfall 0.00 นิ้ว
Snow Depth Not available.
UV 0.0 out of 12
Pollen 8.70 out of 12
Air Quality Not available.
Flu Activity Not available.
METAR KJFZ 310015Z AUTO 11003KT 10SM OVC110 21/00 A3019 RMK AO2 T02121002

10-Day Weather Forecast

×

Almanac

ดาราศาสตร์

Aug. 30, 2015 Rise Set
Actual Time
Civil Twilight
Nautical Twilight
Astronomical Twilight
Moon
Length Of Visible Light
ความยาวของวัน
Tomorrow will be .
, % of the Moon is Illuminated

Today's Extremes

State Highs State Lows

Community

WunderPhotos

Upload Photos

1,851,111 photos uploaded!

WunderBlogs® & News

Nearby

Air Quality

  Air Quality AQ Index Pollutant
Not available.

Snow Depth

Station Depth Elevation

Earthquake Activity

City Distance Mag. Time & Date
Minimum magnitude displayed is 2.5.

Coastal Water Temperatures

สถานที่ อุณหภูมิ

Stations

Nearby Weather Stations

Station Location Temp ลมหนาว อุณหภูมิที่อากาศอาจจับตัวเป็นหยาดน้ำค้าง ความชื้น ลม Precip. Elev ปรับปรุงล่าสุด Type